Terminal Aerodrome Forecast
Issued by NWS North Platte, NE

Home | Current Version | Previous Version | Text Only | Print | Product List | Glossary Off
Versions: 1 2 3 4 5 6 7 8 9 10 11 12 13 14 15 16 17 18 19 20 21 22 23 24

000
FTUS43 KLBF 270536
TAFVTN
TAF
KVTN 270536Z 2706/2806 VRB03KT P6SM FEW020 OVC100
     FM270800 VRB03KT P6SM BKN020
     FM271200 VRB03KT P6SM OVC010
      TEMPO 2712/2715 4SM BR OVC006
     FM271600 16005KT P6SM SCT015 SCT250
     FM271800 16007KT P6SM SCT050 SCT250
     FM272100 14009KT P6SM BKN250=

USA.gov is the U.S. government's official web portal to all federal, state and local government web resources and services.